sensor_id;sensor_type;location;lat;lon;timestamp;P1;durP1;ratioP1;P2;durP2;ratioP2
17382;SDS011;8809;51.892;8.384;2022-09-20T00:01:26;6.38;;;1.85;;
17382;SDS011;8809;51.892;8.384;2022-09-20T00:03:57;3.78;;;1.30;;
17382;SDS011;8809;51.892;8.384;2022-09-20T00:06:26;3.20;;;1.02;;
17382;SDS011;8809;51.892;8.384;2022-09-20T00:08:54;3.90;;;1.10;;
17382;SDS011;8809;51.892;8.384;2022-09-20T00:11:24;2.25;;;1.25;;
17382;SDS011;8809;51.892;8.384;2022-09-20T00:13:53;3.50;;;1.10;;
17382;SDS011;8809;51.892;8.384;2022-09-20T00:16:22;3.15;;;1.15;;
17382;SDS011;8809;51.892;8.384;2022-09-20T00:18:51;5.85;;;1.40;;
17382;SDS011;8809;51.892;8.384;2022-09-20T00:21:21;3.35;;;1.52;;
17382;SDS011;8809;51.892;8.384;2022-09-20T00:23:50;5.15;;;1.95;;
17382;SDS011;8809;51.892;8.384;2022-09-20T00:26:17;7.43;;;1.30;;
17382;SDS011;8809;51.892;8.384;2022-09-20T00:28:46;3.83;;;1.20;;
17382;SDS011;8809;51.892;8.384;2022-09-20T00:31:13;3.42;;;1.13;;
17382;SDS011;8809;51.892;8.384;2022-09-20T00:33:40;2.78;;;1.40;;
17382;SDS011;8809;51.892;8.384;2022-09-20T00:36:26;3.90;;;1.35;;
17382;SDS011;8809;51.892;8.384;2022-09-20T00:38:53;2.80;;;1.33;;
17382;SDS011;8809;51.892;8.384;2022-09-20T00:41:21;5.57;;;1.40;;
17382;SDS011;8809;51.892;8.384;2022-09-20T00:43:49;2.78;;;1.48;;
17382;SDS011;8809;51.892;8.384;2022-09-20T00:46:19;2.92;;;1.10;;
17382;SDS011;8809;51.892;8.384;2022-09-20T00:48:50;3.33;;;1.27;;
17382;SDS011;8809;51.892;8.384;2022-09-20T00:51:22;1.58;;;1.20;;
17382;SDS011;8809;51.892;8.384;2022-09-20T00:53:53;1.50;;;1.00;;
17382;SDS011;8809;51.892;8.384;2022-09-20T00:56:23;3.55;;;1.10;;
17382;SDS011;8809;51.892;8.384;2022-09-20T00:58:55;4.00;;;1.75;;
17382;SDS011;8809;51.892;8.384;2022-09-20T01:01:29;4.32;;;1.60;;
17382;SDS011;8809;51.892;8.384;2022-09-20T01:03:57;5.18;;;1.50;;
17382;SDS011;8809;51.892;8.384;2022-09-20T01:06:25;6.22;;;1.50;;
17382;SDS011;8809;51.892;8.384;2022-09-20T01:08:53;4.35;;;1.52;;
17382;SDS011;8809;51.892;8.384;2022-09-20T01:11:23;5.30;;;1.42;;
17382;SDS011;8809;51.892;8.384;2022-09-20T01:13:51;5.13;;;1.30;;
17382;SDS011;8809;51.892;8.384;2022-09-20T01:16:19;4.13;;;1.15;;
17382;SDS011;8809;51.892;8.384;2022-09-20T01:18:48;2.92;;;1.20;;
17382;SDS011;8809;51.892;8.384;2022-09-20T01:21:16;2.33;;;1.35;;
17382;SDS011;8809;51.892;8.384;2022-09-20T01:23:45;3.25;;;1.10;;
17382;SDS011;8809;51.892;8.384;2022-09-20T01:26:27;3.97;;;1.23;;
17382;SDS011;8809;51.892;8.384;2022-09-20T01:29:11;5.03;;;1.40;;
17382;SDS011;8809;51.892;8.384;2022-09-20T01:31:53;3.58;;;1.20;;
17382;SDS011;8809;51.892;8.384;2022-09-20T01:34:26;4.40;;;1.40;;
17382;SDS011;8809;51.892;8.384;2022-09-20T01:36:58;3.70;;;1.30;;
17382;SDS011;8809;51.892;8.384;2022-09-20T01:39:35;3.22;;;1.20;;
17382;SDS011;8809;51.892;8.384;2022-09-20T01:42:08;2.10;;;1.10;;
17382;SDS011;8809;51.892;8.384;2022-09-20T01:44:39;1.73;;;1.10;;
17382;SDS011;8809;51.892;8.384;2022-09-20T01:47:20;2.88;;;1.30;;
17382;SDS011;8809;51.892;8.384;2022-09-20T01:50:00;3.47;;;1.05;;
17382;SDS011;8809;51.892;8.384;2022-09-20T01:52:53;2.72;;;1.10;;
17382;SDS011;8809;51.892;8.384;2022-09-20T01:55:38;4.13;;;1.17;;
17382;SDS011;8809;51.892;8.384;2022-09-20T01:58:30;4.10;;;1.30;;
17382;SDS011;8809;51.892;8.384;2022-09-20T02:01:25;4.30;;;1.10;;
17382;SDS011;8809;51.892;8.384;2022-09-20T02:07:33;2.35;;;1.10;;
17382;SDS011;8809;51.892;8.384;2022-09-20T02:10:19;1.92;;;1.00;;
17382;SDS011;8809;51.892;8.384;2022-09-20T02:13:05;2.72;;;1.50;;
17382;SDS011;8809;51.892;8.384;2022-09-20T02:15:39;2.65;;;1.10;;
17382;SDS011;8809;51.892;8.384;2022-09-20T02:18:32;4.43;;;1.00;;
17382;SDS011;8809;51.892;8.384;2022-09-20T02:21:13;2.75;;;1.15;;
17382;SDS011;8809;51.892;8.384;2022-09-20T02:23:56;3.63;;;1.33;;
17382;SDS011;8809;51.892;8.384;2022-09-20T02:26:32;2.22;;;1.00;;
17382;SDS011;8809;51.892;8.384;2022-09-20T02:29:11;3.03;;;1.27;;
17382;SDS011;8809;51.892;8.384;2022-09-20T02:38:09;2.97;;;1.05;;
17382;SDS011;8809;51.892;8.384;2022-09-20T02:40:51;4.40;;;1.20;;
17382;SDS011;8809;51.892;8.384;2022-09-20T02:43:43;2.10;;;1.10;;
17382;SDS011;8809;51.892;8.384;2022-09-20T02:46:19;2.17;;;1.15;;
17382;SDS011;8809;51.892;8.384;2022-09-20T02:48:53;2.97;;;1.15;;
17382;SDS011;8809;51.892;8.384;2022-09-20T02:51:28;5.85;;;1.42;;
17382;SDS011;8809;51.892;8.384;2022-09-20T02:54:05;6.88;;;1.70;;
17382;SDS011;8809;51.892;8.384;2022-09-20T02:56:42;3.05;;;1.35;;
17382;SDS011;8809;51.892;8.384;2022-09-20T02:59:21;2.85;;;1.23;;
17382;SDS011;8809;51.892;8.384;2022-09-20T03:01:58;3.28;;;1.35;;
17382;SDS011;8809;51.892;8.384;2022-09-20T03:04:36;2.28;;;1.17;;
17382;SDS011;8809;51.892;8.384;2022-09-20T03:07:12;3.22;;;1.10;;
17382;SDS011;8809;51.892;8.384;2022-09-20T03:09:53;3.45;;;1.20;;
17382;SDS011;8809;51.892;8.384;2022-09-20T03:12:32;6.22;;;1.50;;
17382;SDS011;8809;51.892;8.384;2022-09-20T03:15:11;5.20;;;1.77;;
17382;SDS011;8809;51.892;8.384;2022-09-20T03:17:46;5.43;;;2.05;;
17382;SDS011;8809;51.892;8.384;2022-09-20T03:20:19;3.67;;;1.42;;
17382;SDS011;8809;51.892;8.384;2022-09-20T03:22:56;6.97;;;1.80;;
17382;SDS011;8809;51.892;8.384;2022-09-20T03:25:40;1.75;;;1.25;;
17382;SDS011;8809;51.892;8.384;2022-09-20T03:31:18;2.25;;;1.10;;
17382;SDS011;8809;51.892;8.384;2022-09-20T03:33:58;4.43;;;1.45;;
17382;SDS011;8809;51.892;8.384;2022-09-20T03:36:40;2.75;;;1.30;;
17382;SDS011;8809;51.892;8.384;2022-09-20T03:39:21;3.20;;;1.60;;
17382;SDS011;8809;51.892;8.384;2022-09-20T03:42:10;4.35;;;1.45;;
17382;SDS011;8809;51.892;8.384;2022-09-20T03:44:51;2.28;;;1.10;;
17382;SDS011;8809;51.892;8.384;2022-09-20T03:47:39;3.95;;;1.33;;
17382;SDS011;8809;51.892;8.384;2022-09-20T03:50:22;2.10;;;1.23;;
17382;SDS011;8809;51.892;8.384;2022-09-20T03:53:18;3.15;;;1.55;;
17382;SDS011;8809;51.892;8.384;2022-09-20T03:56:32;6.28;;;1.67;;
17382;SDS011;8809;51.892;8.384;2022-09-20T03:59:23;3.20;;;1.20;;
17382;SDS011;8809;51.892;8.384;2022-09-20T04:02:30;3.30;;;1.35;;
17382;SDS011;8809;51.892;8.384;2022-09-20T04:05:17;4.00;;;1.40;;
17382;SDS011;8809;51.892;8.384;2022-09-20T04:07:53;4.07;;;1.70;;
17382;SDS011;8809;51.892;8.384;2022-09-20T04:10:32;1.50;;;1.05;;
17382;SDS011;8809;51.892;8.384;2022-09-20T04:13:14;2.55;;;1.10;;
17382;SDS011;8809;51.892;8.384;2022-09-20T04:15:56;3.97;;;1.13;;
17382;SDS011;8809;51.892;8.384;2022-09-20T04:18:33;4.30;;;1.33;;
17382;SDS011;8809;51.892;8.384;2022-09-20T04:21:05;6.93;;;1.30;;
17382;SDS011;8809;51.892;8.384;2022-09-20T04:23:42;2.53;;;1.15;;
17382;SDS011;8809;51.892;8.384;2022-09-20T04:26:17;3.63;;;1.20;;
17382;SDS011;8809;51.892;8.384;2022-09-20T04:28:51;2.55;;;1.10;;
17382;SDS011;8809;51.892;8.384;2022-09-20T04:31:26;3.83;;;1.23;;
17382;SDS011;8809;51.892;8.384;2022-09-20T04:34:01;2.90;;;1.30;;
17382;SDS011;8809;51.892;8.384;2022-09-20T04:36:48;3.13;;;1.20;;
17382;SDS011;8809;51.892;8.384;2022-09-20T04:39:22;3.58;;;1.25;;
17382;SDS011;8809;51.892;8.384;2022-09-20T04:42:05;2.85;;;1.35;;
17382;SDS011;8809;51.892;8.384;2022-09-20T04:51:38;3.47;;;1.38;;
17382;SDS011;8809;51.892;8.384;2022-09-20T05:07:25;3.75;;;1.20;;
17382;SDS011;8809;51.892;8.384;2022-09-20T05:10:21;4.07;;;1.58;;
17382;SDS011;8809;51.892;8.384;2022-09-20T05:13:09;4.95;;;1.58;;
17382;SDS011;8809;51.892;8.384;2022-09-20T05:15:48;1.73;;;1.23;;
17382;SDS011;8809;51.892;8.384;2022-09-20T05:18:29;3.55;;;1.30;;
17382;SDS011;8809;51.892;8.384;2022-09-20T05:21:34;3.28;;;1.20;;
17382;SDS011;8809;51.892;8.384;2022-09-20T05:27:38;3.45;;;1.10;;
17382;SDS011;8809;51.892;8.384;2022-09-20T05:30:19;2.80;;;1.33;;
17382;SDS011;8809;51.892;8.384;2022-09-20T05:32:52;3.75;;;1.48;;
17382;SDS011;8809;51.892;8.384;2022-09-20T05:35:31;3.25;;;1.35;;
17382;SDS011;8809;51.892;8.384;2022-09-20T05:38:12;4.30;;;1.23;;
17382;SDS011;8809;51.892;8.384;2022-09-20T05:40:52;2.35;;;0.98;;
17382;SDS011;8809;51.892;8.384;2022-09-20T05:43:31;3.00;;;1.40;;
17382;SDS011;8809;51.892;8.384;2022-09-20T05:46:07;1.52;;;1.23;;
17382;SDS011;8809;51.892;8.384;2022-09-20T05:48:45;1.92;;;1.10;;
17382;SDS011;8809;51.892;8.384;2022-09-20T05:51:26;1.90;;;1.17;;
17382;SDS011;8809;51.892;8.384;2022-09-20T05:57:20;2.40;;;1.20;;
17382;SDS011;8809;51.892;8.384;2022-09-20T06:00:01;2.50;;;1.33;;
17382;SDS011;8809;51.892;8.384;2022-09-20T06:02:37;4.55;;;1.20;;
17382;SDS011;8809;51.892;8.384;2022-09-20T06:05:14;3.33;;;1.20;;
17382;SDS011;8809;51.892;8.384;2022-09-20T06:08:02;2.47;;;1.30;;
17382;SDS011;8809;51.892;8.384;2022-09-20T06:10:41;2.90;;;1.38;;
17382;SDS011;8809;51.892;8.384;2022-09-20T06:13:33;3.20;;;1.40;;
17382;SDS011;8809;51.892;8.384;2022-09-20T06:16:09;4.70;;;1.30;;
17382;SDS011;8809;51.892;8.384;2022-09-20T06:18:44;2.28;;;1.15;;
17382;SDS011;8809;51.892;8.384;2022-09-20T06:21:22;3.30;;;1.42;;
17382;SDS011;8809;51.892;8.384;2022-09-20T06:23:57;4.18;;;1.30;;
17382;SDS011;8809;51.892;8.384;2022-09-20T06:26:26;2.63;;;1.10;;
17382;SDS011;8809;51.892;8.384;2022-09-20T06:28:57;3.00;;;1.40;;
17382;SDS011;8809;51.892;8.384;2022-09-20T06:31:29;5.80;;;1.38;;
17382;SDS011;8809;51.892;8.384;2022-09-20T06:33:57;4.05;;;1.50;;
17382;SDS011;8809;51.892;8.384;2022-09-20T06:36:30;5.03;;;1.60;;
17382;SDS011;8809;51.892;8.384;2022-09-20T06:39:18;3.85;;;1.30;;
17382;SDS011;8809;51.892;8.384;2022-09-20T06:42:09;2.05;;;1.15;;
17382;SDS011;8809;51.892;8.384;2022-09-20T06:44:36;5.55;;;1.75;;
17382;SDS011;8809;51.892;8.384;2022-09-20T06:47:07;2.45;;;1.60;;
17382;SDS011;8809;51.892;8.384;2022-09-20T06:49:35;3.83;;;1.70;;
17382;SDS011;8809;51.892;8.384;2022-09-20T06:52:03;3.60;;;1.98;;
17382;SDS011;8809;51.892;8.384;2022-09-20T06:54:31;5.70;;;2.08;;
17382;SDS011;8809;51.892;8.384;2022-09-20T06:56:59;3.03;;;1.42;;
17382;SDS011;8809;51.892;8.384;2022-09-20T06:59:30;4.72;;;1.77;;
17382;SDS011;8809;51.892;8.384;2022-09-20T07:01:57;2.63;;;1.30;;
17382;SDS011;8809;51.892;8.384;2022-09-20T07:04:25;4.05;;;1.58;;
17382;SDS011;8809;51.892;8.384;2022-09-20T07:06:58;1.60;;;1.30;;
17382;SDS011;8809;51.892;8.384;2022-09-20T07:09:25;2.92;;;1.50;;
17382;SDS011;8809;51.892;8.384;2022-09-20T07:11:52;2.08;;;1.70;;
17382;SDS011;8809;51.892;8.384;2022-09-20T07:14:20;3.60;;;1.65;;
17382;SDS011;8809;51.892;8.384;2022-09-20T07:16:47;3.35;;;1.52;;
17382;SDS011;8809;51.892;8.384;2022-09-20T07:19:14;3.70;;;1.50;;
17382;SDS011;8809;51.892;8.384;2022-09-20T07:21:43;3.95;;;1.70;;
17382;SDS011;8809;51.892;8.384;2022-09-20T07:24:10;4.00;;;1.83;;
17382;SDS011;8809;51.892;8.384;2022-09-20T07:26:38;2.67;;;1.45;;
17382;SDS011;8809;51.892;8.384;2022-09-20T07:29:05;3.17;;;1.77;;
17382;SDS011;8809;51.892;8.384;2022-09-20T07:31:32;1.58;;;1.20;;
17382;SDS011;8809;51.892;8.384;2022-09-20T07:33:59;3.70;;;1.40;;
17382;SDS011;8809;51.892;8.384;2022-09-20T07:36:26;3.25;;;1.45;;
17382;SDS011;8809;51.892;8.384;2022-09-20T07:38:55;2.55;;;1.10;;
17382;SDS011;8809;51.892;8.384;2022-09-20T07:41:21;1.75;;;1.27;;
17382;SDS011;8809;51.892;8.384;2022-09-20T07:43:48;3.80;;;1.80;;
17382;SDS011;8809;51.892;8.384;2022-09-20T07:46:16;2.28;;;1.38;;
17382;SDS011;8809;51.892;8.384;2022-09-20T07:48:46;2.38;;;1.65;;
17382;SDS011;8809;51.892;8.384;2022-09-20T07:51:13;1.88;;;1.10;;
17382;SDS011;8809;51.892;8.384;2022-09-20T07:53:40;2.50;;;1.70;;
17382;SDS011;8809;51.892;8.384;2022-09-20T07:56:10;2.10;;;1.38;;
17382;SDS011;8809;51.892;8.384;2022-09-20T07:58:39;1.95;;;1.20;;
17382;SDS011;8809;51.892;8.384;2022-09-20T08:01:07;1.70;;;1.17;;
17382;SDS011;8809;51.892;8.384;2022-09-20T08:03:37;2.42;;;1.38;;
17382;SDS011;8809;51.892;8.384;2022-09-20T08:06:05;2.80;;;1.55;;
17382;SDS011;8809;51.892;8.384;2022-09-20T08:08:34;2.97;;;1.15;;
17382;SDS011;8809;51.892;8.384;2022-09-20T08:11:04;2.53;;;1.02;;
17382;SDS011;8809;51.892;8.384;2022-09-20T08:13:35;2.53;;;1.20;;
17382;SDS011;8809;51.892;8.384;2022-09-20T08:16:04;2.22;;;1.35;;
17382;SDS011;8809;51.892;8.384;2022-09-20T08:18:33;4.55;;;1.50;;
17382;SDS011;8809;51.892;8.384;2022-09-20T08:21:02;2.40;;;1.33;;
17382;SDS011;8809;51.892;8.384;2022-09-20T08:23:32;2.47;;;1.30;;
17382;SDS011;8809;51.892;8.384;2022-09-20T08:26:00;3.65;;;1.45;;
17382;SDS011;8809;51.892;8.384;2022-09-20T08:28:27;1.73;;;1.00;;
17382;SDS011;8809;51.892;8.384;2022-09-20T08:31:00;2.90;;;1.15;;
17382;SDS011;8809;51.892;8.384;2022-09-20T08:33:28;2.75;;;1.20;;
17382;SDS011;8809;51.892;8.384;2022-09-20T08:35:55;4.82;;;1.63;;
17382;SDS011;8809;51.892;8.384;2022-09-20T08:38:23;1.85;;;1.08;;
17382;SDS011;8809;51.892;8.384;2022-09-20T08:40:52;2.60;;;1.30;;
17382;SDS011;8809;51.892;8.384;2022-09-20T08:43:24;3.00;;;1.30;;
17382;SDS011;8809;51.892;8.384;2022-09-20T08:45:55;3.17;;;1.52;;
17382;SDS011;8809;51.892;8.384;2022-09-20T08:48:27;2.08;;;1.10;;
17382;SDS011;8809;51.892;8.384;2022-09-20T08:50:58;2.22;;;1.00;;
17382;SDS011;8809;51.892;8.384;2022-09-20T08:53:25;1.77;;;0.90;;
17382;SDS011;8809;51.892;8.384;2022-09-20T08:55:53;2.97;;;1.20;;
17382;SDS011;8809;51.892;8.384;2022-09-20T08:58:22;3.28;;;1.30;;
17382;SDS011;8809;51.892;8.384;2022-09-20T09:00:49;2.28;;;1.08;;
17382;SDS011;8809;51.892;8.384;2022-09-20T09:03:17;3.22;;;1.30;;
17382;SDS011;8809;51.892;8.384;2022-09-20T09:05:46;4.63;;;1.20;;
17382;SDS011;8809;51.892;8.384;2022-09-20T09:08:16;3.25;;;1.52;;
17382;SDS011;8809;51.892;8.384;2022-09-20T09:10:45;2.25;;;1.02;;
17382;SDS011;8809;51.892;8.384;2022-09-20T09:13:24;2.72;;;1.13;;
17382;SDS011;8809;51.892;8.384;2022-09-20T09:15:57;1.92;;;0.95;;
17382;SDS011;8809;51.892;8.384;2022-09-20T09:18:30;2.00;;;0.80;;
17382;SDS011;8809;51.892;8.384;2022-09-20T09:21:02;5.25;;;1.10;;
17382;SDS011;8809;51.892;8.384;2022-09-20T09:23:36;4.70;;;1.35;;
17382;SDS011;8809;51.892;8.384;2022-09-20T09:26:13;5.18;;;1.75;;
17382;SDS011;8809;51.892;8.384;2022-09-20T09:28:42;2.75;;;1.30;;
17382;SDS011;8809;51.892;8.384;2022-09-20T09:31:13;6.68;;;1.20;;
17382;SDS011;8809;51.892;8.384;2022-09-20T09:33:50;3.65;;;0.98;;
17382;SDS011;8809;51.892;8.384;2022-09-20T09:36:22;3.20;;;1.38;;
17382;SDS011;8809;51.892;8.384;2022-09-20T09:38:50;2.40;;;1.10;;
17382;SDS011;8809;51.892;8.384;2022-09-20T09:41:48;3.38;;;1.40;;
17382;SDS011;8809;51.892;8.384;2022-09-20T09:44:18;3.60;;;1.05;;
17382;SDS011;8809;51.892;8.384;2022-09-20T09:46:47;2.83;;;1.10;;
17382;SDS011;8809;51.892;8.384;2022-09-20T09:49:16;3.70;;;0.90;;
17382;SDS011;8809;51.892;8.384;2022-09-20T09:54:30;1.35;;;0.70;;
17382;SDS011;8809;51.892;8.384;2022-09-20T09:57:03;1.63;;;0.70;;
17382;SDS011;8809;51.892;8.384;2022-09-20T10:00:01;3.28;;;0.88;;
17382;SDS011;8809;51.892;8.384;2022-09-20T10:03:04;3.05;;;1.10;;
17382;SDS011;8809;51.892;8.384;2022-09-20T10:05:45;2.10;;;1.20;;
17382;SDS011;8809;51.892;8.384;2022-09-20T10:08:25;2.00;;;1.00;;
17382;SDS011;8809;51.892;8.384;2022-09-20T10:11:13;2.33;;;0.63;;
17382;SDS011;8809;51.892;8.384;2022-09-20T10:13:52;2.15;;;0.90;;
17382;SDS011;8809;51.892;8.384;2022-09-20T10:16:31;2.22;;;1.00;;
17382;SDS011;8809;51.892;8.384;2022-09-20T10:19:12;1.80;;;0.82;;
17382;SDS011;8809;51.892;8.384;2022-09-20T10:21:50;2.30;;;0.95;;
17382;SDS011;8809;51.892;8.384;2022-09-20T10:24:30;3.75;;;0.90;;
17382;SDS011;8809;51.892;8.384;2022-09-20T10:27:16;4.00;;;0.80;;
17382;SDS011;8809;51.892;8.384;2022-09-20T10:29:58;2.15;;;0.90;;
17382;SDS011;8809;51.892;8.384;2022-09-20T10:32:41;3.72;;;0.95;;
17382;SDS011;8809;51.892;8.384;2022-09-20T10:35:24;2.10;;;0.88;;
17382;SDS011;8809;51.892;8.384;2022-09-20T10:38:03;2.20;;;0.80;;
17382;SDS011;8809;51.892;8.384;2022-09-20T10:40:40;1.88;;;0.80;;
17382;SDS011;8809;51.892;8.384;2022-09-20T10:43:55;3.03;;;0.90;;
17382;SDS011;8809;51.892;8.384;2022-09-20T10:46:45;1.75;;;0.73;;
17382;SDS011;8809;51.892;8.384;2022-09-20T10:49:19;3.13;;;0.90;;
17382;SDS011;8809;51.892;8.384;2022-09-20T10:51:55;2.70;;;0.80;;
17382;SDS011;8809;51.892;8.384;2022-09-20T10:54:35;1.85;;;0.80;;
17382;SDS011;8809;51.892;8.384;2022-09-20T10:57:21;2.58;;;0.68;;
17382;SDS011;8809;51.892;8.384;2022-09-20T11:00:04;2.38;;;0.82;;
17382;SDS011;8809;51.892;8.384;2022-09-20T11:02:45;2.05;;;0.80;;
17382;SDS011;8809;51.892;8.384;2022-09-20T11:05:29;2.30;;;1.23;;
17382;SDS011;8809;51.892;8.384;2022-09-20T11:08:07;2.33;;;0.68;;
17382;SDS011;8809;51.892;8.384;2022-09-20T11:10:39;2.03;;;0.70;;
17382;SDS011;8809;51.892;8.384;2022-09-20T11:13:16;1.45;;;0.70;;
17382;SDS011;8809;51.892;8.384;2022-09-20T11:15:50;1.50;;;0.80;;
17382;SDS011;8809;51.892;8.384;2022-09-20T11:18:24;2.38;;;0.82;;
17382;SDS011;8809;51.892;8.384;2022-09-20T11:20:58;1.40;;;0.68;;
17382;SDS011;8809;51.892;8.384;2022-09-20T11:23:34;1.85;;;0.60;;
17382;SDS011;8809;51.892;8.384;2022-09-20T11:26:10;1.95;;;0.80;;
17382;SDS011;8809;51.892;8.384;2022-09-20T11:28:45;1.80;;;0.70;;
17382;SDS011;8809;51.892;8.384;2022-09-20T11:31:18;2.78;;;0.70;;
17382;SDS011;8809;51.892;8.384;2022-09-20T11:33:49;1.20;;;0.50;;
17382;SDS011;8809;51.892;8.384;2022-09-20T11:36:22;2.28;;;0.50;;
17382;SDS011;8809;51.892;8.384;2022-09-20T11:38:56;0.98;;;0.70;;
17382;SDS011;8809;51.892;8.384;2022-09-20T11:41:27;0.73;;;0.50;;
17382;SDS011;8809;51.892;8.384;2022-09-20T11:43:58;0.93;;;0.70;;
17382;SDS011;8809;51.892;8.384;2022-09-20T11:46:32;0.80;;;0.57;;
17382;SDS011;8809;51.892;8.384;2022-09-20T11:49:04;1.10;;;0.60;;
17382;SDS011;8809;51.892;8.384;2022-09-20T11:54:48;0.50;;;0.50;;
17382;SDS011;8809;51.892;8.384;2022-09-20T11:57:23;0.40;;;0.40;;
17382;SDS011;8809;51.892;8.384;2022-09-20T11:59:53;0.90;;;0.60;;
17382;SDS011;8809;51.892;8.384;2022-09-20T12:02:22;0.50;;;0.50;;
17382;SDS011;8809;51.892;8.384;2022-09-20T12:04:55;1.55;;;0.50;;
17382;SDS011;8809;51.892;8.384;2022-09-20T12:07:24;0.70;;;0.50;;
17382;SDS011;8809;51.892;8.384;2022-09-20T12:09:55;0.85;;;0.40;;
17382;SDS011;8809;51.892;8.384;2022-09-20T12:12:27;0.40;;;0.40;;
17382;SDS011;8809;51.892;8.384;2022-09-20T12:15:02;0.88;;;0.50;;
17382;SDS011;8809;51.892;8.384;2022-09-20T12:26:40;0.63;;;0.40;;
17382;SDS011;8809;51.892;8.384;2022-09-20T12:38:27;1.13;;;0.52;;
17382;SDS011;8809;51.892;8.384;2022-09-20T12:41:04;0.93;;;0.63;;
17382;SDS011;8809;51.892;8.384;2022-09-20T12:43:35;0.50;;;0.40;;
17382;SDS011;8809;51.892;8.384;2022-09-20T12:46:04;0.65;;;0.50;;
17382;SDS011;8809;51.892;8.384;2022-09-20T12:48:35;0.77;;;0.40;;
17382;SDS011;8809;51.892;8.384;2022-09-20T12:51:04;0.57;;;0.50;;
17382;SDS011;8809;51.892;8.384;2022-09-20T12:54:02;0.95;;;0.45;;
17382;SDS011;8809;51.892;8.384;2022-09-20T12:56:32;2.45;;;0.90;;
17382;SDS011;8809;51.892;8.384;2022-09-20T12:59:02;2.17;;;0.80;;
17382;SDS011;8809;51.892;8.384;2022-09-20T13:01:33;1.77;;;0.90;;
17382;SDS011;8809;51.892;8.384;2022-09-20T13:10:28;2.33;;;1.05;;
17382;SDS011;8809;51.892;8.384;2022-09-20T13:13:00;1.48;;;0.70;;
17382;SDS011;8809;51.892;8.384;2022-09-20T13:15:36;1.55;;;0.98;;
17382;SDS011;8809;51.892;8.384;2022-09-20T13:18:05;1.33;;;0.70;;
17382;SDS011;8809;51.892;8.384;2022-09-20T13:20:39;1.88;;;0.65;;
17382;SDS011;8809;51.892;8.384;2022-09-20T13:23:13;1.70;;;1.00;;
17382;SDS011;8809;51.892;8.384;2022-09-20T13:25:46;0.75;;;0.55;;
17382;SDS011;8809;51.892;8.384;2022-09-20T13:28:17;0.65;;;0.55;;
17382;SDS011;8809;51.892;8.384;2022-09-20T13:33:52;0.65;;;0.50;;
17382;SDS011;8809;51.892;8.384;2022-09-20T13:36:23;1.15;;;0.65;;
17382;SDS011;8809;51.892;8.384;2022-09-20T13:38:55;1.98;;;0.63;;
17382;SDS011;8809;51.892;8.384;2022-09-20T13:41:25;0.70;;;0.55;;
17382;SDS011;8809;51.892;8.384;2022-09-20T13:43:55;1.98;;;0.63;;
17382;SDS011;8809;51.892;8.384;2022-09-20T13:46:23;1.05;;;0.80;;
17382;SDS011;8809;51.892;8.384;2022-09-20T13:48:57;0.75;;;0.50;;
17382;SDS011;8809;51.892;8.384;2022-09-20T13:51:38;1.20;;;0.60;;
17382;SDS011;8809;51.892;8.384;2022-09-20T13:54:23;1.00;;;0.60;;
17382;SDS011;8809;51.892;8.384;2022-09-20T13:56:54;1.98;;;0.60;;
17382;SDS011;8809;51.892;8.384;2022-09-20T13:59:25;2.20;;;0.77;;
17382;SDS011;8809;51.892;8.384;2022-09-20T14:01:57;1.23;;;0.80;;
17382;SDS011;8809;51.892;8.384;2022-09-20T14:04:26;1.10;;;0.60;;
17382;SDS011;8809;51.892;8.384;2022-09-20T14:06:55;2.08;;;0.68;;
17382;SDS011;8809;51.892;8.384;2022-09-20T14:09:26;0.60;;;0.55;;
17382;SDS011;8809;51.892;8.384;2022-09-20T14:11:55;0.70;;;0.50;;
17382;SDS011;8809;51.892;8.384;2022-09-20T14:14:24;0.93;;;0.60;;
17382;SDS011;8809;51.892;8.384;2022-09-20T14:16:52;1.35;;;0.50;;
17382;SDS011;8809;51.892;8.384;2022-09-20T14:19:22;0.50;;;0.50;;
17382;SDS011;8809;51.892;8.384;2022-09-20T14:21:55;1.48;;;0.68;;
17382;SDS011;8809;51.892;8.384;2022-09-20T14:24:24;2.15;;;0.60;;
17382;SDS011;8809;51.892;8.384;2022-09-20T14:27:13;1.27;;;0.65;;
17382;SDS011;8809;51.892;8.384;2022-09-20T14:29:44;0.98;;;0.70;;
17382;SDS011;8809;51.892;8.384;2022-09-20T14:32:22;2.28;;;1.05;;
17382;SDS011;8809;51.892;8.384;2022-09-20T14:34:57;2.80;;;0.98;;
17382;SDS011;8809;51.892;8.384;2022-09-20T14:37:27;2.58;;;0.82;;
17382;SDS011;8809;51.892;8.384;2022-09-20T14:39:58;1.10;;;0.60;;
17382;SDS011;8809;51.892;8.384;2022-09-20T14:42:29;2.80;;;1.05;;
17382;SDS011;8809;51.892;8.384;2022-09-20T14:44:59;1.77;;;0.80;;
17382;SDS011;8809;51.892;8.384;2022-09-20T14:47:28;3.70;;;0.98;;
17382;SDS011;8809;51.892;8.384;2022-09-20T14:50:02;1.73;;;0.73;;
17382;SDS011;8809;51.892;8.384;2022-09-20T14:52:35;2.20;;;0.77;;
17382;SDS011;8809;51.892;8.384;2022-09-20T14:55:23;0.60;;;0.50;;
17382;SDS011;8809;51.892;8.384;2022-09-20T14:57:55;1.65;;;0.50;;
17382;SDS011;8809;51.892;8.384;2022-09-20T15:00:24;1.55;;;0.63;;
17382;SDS011;8809;51.892;8.384;2022-09-20T15:02:53;1.10;;;0.60;;
17382;SDS011;8809;51.892;8.384;2022-09-20T15:05:27;1.27;;;0.70;;
17382;SDS011;8809;51.892;8.384;2022-09-20T15:07:55;1.33;;;0.70;;
17382;SDS011;8809;51.892;8.384;2022-09-20T15:10:24;0.95;;;0.60;;
17382;SDS011;8809;51.892;8.384;2022-09-20T15:12:51;1.10;;;0.55;;
17382;SDS011;8809;51.892;8.384;2022-09-20T15:15:18;0.73;;;0.50;;
17382;SDS011;8809;51.892;8.384;2022-09-20T15:17:46;0.80;;;0.50;;
17382;SDS011;8809;51.892;8.384;2022-09-20T15:20:14;1.40;;;0.60;;
17382;SDS011;8809;51.892;8.384;2022-09-20T15:22:44;1.65;;;0.63;;
17382;SDS011;8809;51.892;8.384;2022-09-20T15:25:12;2.15;;;1.10;;
17382;SDS011;8809;51.892;8.384;2022-09-20T15:27:42;1.50;;;0.70;;
17382;SDS011;8809;51.892;8.384;2022-09-20T15:30:11;1.45;;;0.70;;
17382;SDS011;8809;51.892;8.384;2022-09-20T15:32:42;0.82;;;0.50;;
17382;SDS011;8809;51.892;8.384;2022-09-20T15:35:09;0.70;;;0.50;;
17382;SDS011;8809;51.892;8.384;2022-09-20T15:37:38;1.20;;;0.40;;
17382;SDS011;8809;51.892;8.384;2022-09-20T15:40:10;1.42;;;0.55;;
17382;SDS011;8809;51.892;8.384;2022-09-20T15:42:40;0.70;;;0.50;;
17382;SDS011;8809;51.892;8.384;2022-09-20T15:45:10;1.02;;;0.50;;
17382;SDS011;8809;51.892;8.384;2022-09-20T15:47:38;1.08;;;0.60;;
17382;SDS011;8809;51.892;8.384;2022-09-20T15:50:05;0.68;;;0.50;;
17382;SDS011;8809;51.892;8.384;2022-09-20T15:52:41;1.23;;;0.70;;
17382;SDS011;8809;51.892;8.384;2022-09-20T15:55:08;1.48;;;0.50;;
17382;SDS011;8809;51.892;8.384;2022-09-20T15:57:36;0.88;;;0.50;;
17382;SDS011;8809;51.892;8.384;2022-09-20T16:00:10;1.27;;;0.52;;
17382;SDS011;8809;51.892;8.384;2022-09-20T16:02:43;0.73;;;0.40;;
17382;SDS011;8809;51.892;8.384;2022-09-20T16:05:14;0.82;;;0.50;;
17382;SDS011;8809;51.892;8.384;2022-09-20T16:07:41;0.88;;;0.50;;
17382;SDS011;8809;51.892;8.384;2022-09-20T16:10:10;0.95;;;0.45;;
17382;SDS011;8809;51.892;8.384;2022-09-20T16:12:39;0.68;;;0.40;;
17382;SDS011;8809;51.892;8.384;2022-09-20T16:15:06;0.95;;;0.55;;
17382;SDS011;8809;51.892;8.384;2022-09-20T16:17:36;0.90;;;0.55;;
17382;SDS011;8809;51.892;8.384;2022-09-20T16:20:20;0.60;;;0.50;;
17382;SDS011;8809;51.892;8.384;2022-09-20T16:22:47;0.40;;;0.40;;
17382;SDS011;8809;51.892;8.384;2022-09-20T16:25:14;0.40;;;0.40;;
17382;SDS011;8809;51.892;8.384;2022-09-20T16:27:41;0.50;;;0.40;;
17382;SDS011;8809;51.892;8.384;2022-09-20T16:30:15;0.40;;;0.40;;
17382;SDS011;8809;51.892;8.384;2022-09-20T16:32:44;0.52;;;0.50;;
17382;SDS011;8809;51.892;8.384;2022-09-20T16:35:11;0.60;;;0.57;;
17382;SDS011;8809;51.892;8.384;2022-09-20T16:37:38;0.40;;;0.40;;
17382;SDS011;8809;51.892;8.384;2022-09-20T16:40:08;0.50;;;0.40;;
17382;SDS011;8809;51.892;8.384;2022-09-20T16:42:39;0.57;;;0.40;;
17382;SDS011;8809;51.892;8.384;2022-09-20T16:45:06;0.50;;;0.50;;
17382;SDS011;8809;51.892;8.384;2022-09-20T16:47:35;1.05;;;0.60;;
17382;SDS011;8809;51.892;8.384;2022-09-20T16:50:05;0.40;;;0.40;;
17382;SDS011;8809;51.892;8.384;2022-09-20T16:52:34;1.58;;;0.57;;
17382;SDS011;8809;51.892;8.384;2022-09-20T16:55:02;0.57;;;0.40;;
17382;SDS011;8809;51.892;8.384;2022-09-20T16:57:29;0.50;;;0.50;;